PWSweather.com
Personal Weather Stations
Station Observations

MakarauRodneyNZ

Lat: -36.52421, Lon: 174.47572

Elevation: 606

Station Type: Davis VP2

http://kaiparaweather.dynu.net/index.php

Latest ConditionsUpdated 10:10:00 AM GMT+12:12 Saturday, Oct 19, 2019
Currently Today's Max Today's Min Today's Average
Temperature 62.0°F16.7°C 62.0°F16.7°C 56.0°F13.3°C 57.7°F14.3°C
Dew Point 62.0°F16.7°C 62.0°F16.7°C 55.1°F12.8°C 57.3°F14.1°C
Winds 4.6 mph NW7.4 kmh NW 9.2 mph -14.8 kmh - - 2.5 mph 4.0 kmh
Wind Gusts 18.4 mph29.6 kmh 18.4 mph29.6 kmh - -
Humidity 100% 100% 95% 99%
Pressure 29.90 in1012.5 mb 29.91 in1012.9 mb 29.84 in1010.5 mb -
Precipitation - 0.10 in2.5 mm - -
Hour Temp Dew Point Humidity Winds Wind Gusts Pressure Precip Precip Rate Daily Precip Total
10:10 AM 62.0°F16.7°C 62.0°F16.7°C 100% 4.6 mph NW7.4 kmh NW 18.4 mph29.6 kmh 29.90 in1012.5 mb - 0.00 in0.0 mm 0.10 in2.5 mm
10:00 AM 61.4°F16.3°C 61.4°F16.3°C 100% 5.8 mph W9.3 kmh W 12.7 mph20.4 kmh 29.90 in1012.5 mb - 0.00 in0.0 mm 0.10 in2.5 mm
09:50 AM 60.6°F15.9°C 60.3°F15.7°C 99% 9.2 mph WNW14.8 kmh WNW 16.1 mph25.9 kmh 29.90 in1012.5 mb - 0.00 in0.0 mm 0.10 in2.5 mm
09:40 AM 60.2°F15.7°C 60.0°F15.6°C 99% 4.6 mph W7.4 kmh W 11.5 mph18.5 kmh 29.91 in1012.9 mb - 0.00 in0.0 mm 0.10 in2.5 mm
09:30 AM 59.5°F15.3°C 59.5°F15.3°C 100% 3.5 mph WSW5.6 kmh WSW 10.4 mph16.7 kmh 29.91 in1012.9 mb - 0.00 in0.0 mm 0.10 in2.5 mm
09:20 AM 59.1°F15.1°C 59.2°F15.1°C 100% 5.8 mph NW9.3 kmh NW 11.5 mph18.5 kmh 29.91 in1012.9 mb - 0.00 in0.0 mm 0.10 in2.5 mm
09:10 AM 59.0°F15.0°C 59.0°F15.0°C 100% 4.6 mph W7.4 kmh W 11.5 mph18.5 kmh 29.90 in1012.5 mb - 0.00 in0.0 mm 0.10 in2.5 mm
09:00 AM 59.1°F15.1°C 59.1°F15.1°C 100% 3.5 mph WNW5.6 kmh WNW 8.1 mph13.0 kmh 29.89 in1012.2 mb - 0.00 in0.0 mm 0.10 in2.5 mm
08:50 AM 58.8°F14.9°C 58.8°F14.9°C 100% 6.9 mph NW11.1 kmh NW 6.9 mph11.1 kmh 29.89 in1012.2 mb - 0.00 in0.0 mm 0.10 in2.5 mm
08:40 AM 58.4°F14.7°C 58.4°F14.7°C 100% 5.8 mph W9.3 kmh W 9.2 mph14.8 kmh 29.89 in1012.2 mb - 0.00 in0.0 mm 0.10 in2.5 mm
08:30 AM 58.0°F14.4°C 58.0°F14.4°C 100% 4.6 mph W7.4 kmh W 8.1 mph13.0 kmh 29.89 in1012.2 mb - 0.00 in0.0 mm 0.10 in2.5 mm
08:20 AM 57.6°F14.2°C 57.6°F14.2°C 100% 3.5 mph WSW5.6 kmh WSW 9.2 mph14.8 kmh 29.89 in1012.2 mb - 0.00 in0.0 mm 0.10 in2.5 mm
08:10 AM 57.4°F14.1°C 57.4°F14.1°C 100% 4.6 mph W7.4 kmh W 11.5 mph18.5 kmh 29.89 in1012.2 mb - 0.00 in0.0 mm 0.10 in2.5 mm
08:00 AM 58.2°F14.6°C 58.2°F14.6°C 100% 8.1 mph WNW13.0 kmh WNW 15.0 mph24.1 kmh 29.89 in1012.2 mb - 0.03 in0.8 mm 0.10 in2.5 mm
07:50 AM 59.0°F15.0°C 59.0°F15.0°C 100% 5.8 mph NW9.3 kmh NW 10.4 mph16.7 kmh 29.88 in1011.9 mb - 0.00 in0.0 mm 0.07 in1.8 mm
07:40 AM 59.2°F15.1°C 59.2°F15.1°C 100% 4.6 mph NW7.4 kmh NW 6.9 mph11.1 kmh 29.87 in1011.5 mb - 0.00 in0.0 mm 0.07 in1.8 mm
07:30 AM 59.2°F15.1°C 59.2°F15.1°C 100% 3.5 mph NNW5.6 kmh NNW 10.4 mph16.7 kmh 29.87 in1011.5 mb - 0.00 in0.0 mm 0.07 in1.8 mm
07:20 AM 59.0°F15.0°C 59.0°F15.0°C 100% 5.8 mph NW9.3 kmh NW 11.5 mph18.5 kmh 29.87 in1011.5 mb - 0.00 in0.0 mm 0.07 in1.8 mm
07:10 AM 58.6°F14.8°C 58.6°F14.8°C 100% 1.2 mph W1.9 kmh W 4.6 mph7.4 kmh 29.87 in1011.5 mb - 0.00 in0.0 mm 0.07 in1.8 mm
07:00 AM 58.3°F14.6°C 58.3°F14.6°C 100% 2.3 mph SW3.7 kmh SW 11.5 mph18.5 kmh 29.87 in1011.5 mb - 0.00 in0.0 mm 0.07 in1.8 mm
06:50 AM 57.9°F14.4°C 57.9°F14.4°C 100% 2.3 mph N3.7 kmh N 8.1 mph13.0 kmh 29.87 in1011.5 mb - 0.00 in0.0 mm 0.07 in1.8 mm
06:40 AM 57.7°F14.3°C 57.7°F14.3°C 100% 5.8 mph NW9.3 kmh NW 11.5 mph18.5 kmh 29.87 in1011.5 mb - 0.00 in0.0 mm 0.07 in1.8 mm
06:30 AM 57.4°F14.1°C 57.1°F13.9°C 99% 4.6 mph NW7.4 kmh NW 12.7 mph20.4 kmh 29.87 in1011.5 mb - 0.00 in0.0 mm 0.07 in1.8 mm
06:20 AM 57.0°F13.9°C 56.7°F13.7°C 99% 5.8 mph NNW9.3 kmh NNW 11.5 mph18.5 kmh 29.87 in1011.5 mb - 0.00 in0.0 mm 0.07 in1.8 mm
06:10 AM 56.7°F13.7°C 56.4°F13.6°C 99% 2.3 mph WNW3.7 kmh WNW 6.9 mph11.1 kmh 29.86 in1011.2 mb - 0.00 in0.0 mm 0.07 in1.8 mm
06:00 AM 56.5°F13.6°C 56.2°F13.4°C 99% 1.2 mph WNW1.9 kmh WNW 4.6 mph7.4 kmh 29.86 in1011.2 mb - 0.00 in0.0 mm 0.07 in1.8 mm
05:50 AM 56.3°F13.5°C 56.0°F13.3°C 99% Calm Calm -- 29.86 in1011.2 mb - 0.00 in0.0 mm 0.07 in1.8 mm
05:40 AM 56.2°F13.4°C 55.7°F13.2°C 98% 2.3 mph NW3.7 kmh NW 5.8 mph9.3 kmh 29.86 in1011.2 mb - 0.00 in0.0 mm 0.07 in1.8 mm
05:30 AM 56.1°F13.4°C 55.5°F13.1°C 98% 1.2 mph NW1.9 kmh NW 4.6 mph7.4 kmh 29.85 in1010.8 mb - 0.00 in0.0 mm 0.07 in1.8 mm
05:20 AM 56.0°F13.3°C 55.5°F13.1°C 98% 2.3 mph NE3.7 kmh NE 4.6 mph7.4 kmh 29.85 in1010.8 mb - 0.00 in0.0 mm 0.07 in1.8 mm
05:10 AM 56.0°F13.3°C 55.4°F13.0°C 98% Calm Calm -- 29.85 in1010.8 mb - 0.00 in0.0 mm 0.07 in1.8 mm
05:00 AM 56.1°F13.4°C 55.3°F12.9°C 97% Calm Calm -- 29.84 in1010.5 mb - 0.00 in0.0 mm 0.07 in1.8 mm
04:50 AM 56.1°F13.4°C 55.3°F12.9°C 97% Calm Calm -- 29.84 in1010.5 mb - 0.00 in0.0 mm 0.07 in1.8 mm
04:40 AM 56.2°F13.4°C 55.1°F12.8°C 96% Calm Calm 6.9 mph11.1 kmh 29.84 in1010.5 mb - 0.00 in0.0 mm 0.07 in1.8 mm
04:30 AM 56.4°F13.6°C 55.3°F12.9°C 96% Calm Calm 3.5 mph5.6 kmh 29.84 in1010.5 mb - 0.00 in0.0 mm 0.07 in1.8 mm
04:20 AM 56.5°F13.6°C 55.4°F13.0°C 96% Calm Calm 3.5 mph5.6 kmh 29.84 in1010.5 mb - 0.00 in0.0 mm 0.07 in1.8 mm
04:10 AM 56.7°F13.7°C 55.3°F12.9°C 95% Calm Calm 3.5 mph5.6 kmh 29.84 in1010.5 mb - 0.00 in0.0 mm 0.07 in1.8 mm
04:00 AM 56.9°F13.8°C 55.5°F13.1°C 95% Calm Calm -- 29.84 in1010.5 mb - 0.00 in0.0 mm 0.07 in1.8 mm
03:50 AM 57.0°F13.9°C 55.6°F13.1°C 95% Calm Calm 3.5 mph5.6 kmh 29.85 in1010.8 mb - 0.01 in0.3 mm 0.07 in1.8 mm
03:40 AM 57.2°F14.0°C 55.8°F13.2°C 95% Calm Calm 1.2 mph1.9 kmh 29.85 in1010.8 mb - 0.00 in0.0 mm 0.06 in1.5 mm
03:30 AM 57.4°F14.1°C 56.0°F13.3°C 95% 1.2 mph NE1.9 kmh NE 3.5 mph5.6 kmh 29.85 in1010.8 mb - 0.00 in0.0 mm 0.06 in1.5 mm
03:20 AM 57.6°F14.2°C 56.2°F13.4°C 95% Calm Calm -- 29.85 in1010.8 mb - 0.00 in0.0 mm 0.06 in1.5 mm
03:10 AM 57.6°F14.2°C 56.2°F13.4°C 95% 1.2 mph NE1.9 kmh NE 3.5 mph5.6 kmh 29.85 in1010.8 mb - 0.00 in0.0 mm 0.06 in1.5 mm
03:00 AM 57.6°F14.2°C 56.4°F13.6°C 96% Calm Calm -- 29.85 in1010.8 mb - 0.00 in0.0 mm 0.06 in1.5 mm
02:50 AM 57.5°F14.2°C 56.3°F13.5°C 96% Calm Calm -- 29.85 in1010.8 mb - 0.00 in0.0 mm 0.06 in1.5 mm
02:40 AM 57.5°F14.2°C 56.4°F13.6°C 96% 1.2 mph NE1.9 kmh NE 17.3 mph27.8 kmh 29.85 in1010.8 mb - 0.00 in0.0 mm 0.06 in1.5 mm
02:30 AM 57.6°F14.2°C 56.7°F13.7°C 97% 2.3 mph NE3.7 kmh NE 3.5 mph5.6 kmh 29.85 in1010.8 mb - 0.00 in0.0 mm 0.06 in1.5 mm
02:20 AM 57.6°F14.2°C 56.8°F13.8°C 97% 2.3 mph NE3.7 kmh NE 3.5 mph5.6 kmh 29.85 in1010.8 mb - 0.00 in0.0 mm 0.06 in1.5 mm
02:10 AM 57.6°F14.2°C 56.7°F13.7°C 97% 3.5 mph ENE5.6 kmh ENE 4.6 mph7.4 kmh 29.85 in1010.8 mb - 0.00 in0.0 mm 0.06 in1.5 mm
02:00 AM 57.5°F14.2°C 56.9°F13.8°C 98% 1.2 mph NE1.9 kmh NE 1.2 mph1.9 kmh 29.85 in1010.8 mb - 0.00 in0.0 mm 0.06 in1.5 mm
01:50 AM 57.4°F14.1°C 57.4°F14.1°C 100% 1.2 mph NE1.9 kmh NE 5.8 mph9.3 kmh 29.84 in1010.5 mb - 0.00 in0.0 mm 0.06 in1.5 mm
01:40 AM 57.3°F14.1°C 57.3°F14.1°C 100% Calm Calm 2.3 mph3.7 kmh 29.84 in1010.5 mb - 0.00 in0.0 mm 0.06 in1.5 mm
01:30 AM 57.2°F14.0°C 57.2°F14.0°C 100% 1.2 mph NE1.9 kmh NE 3.5 mph5.6 kmh 29.84 in1010.5 mb - 0.00 in0.0 mm 0.06 in1.5 mm
01:20 AM 57.2°F14.0°C 57.2°F14.0°C 100% Calm Calm -- 29.84 in1010.5 mb - 0.01 in0.3 mm 0.06 in1.5 mm
01:10 AM 57.2°F14.0°C 57.2°F14.0°C 100% 1.2 mph ENE1.9 kmh ENE 3.5 mph5.6 kmh 29.85 in1010.8 mb - 0.00 in0.0 mm 0.06 in1.5 mm
01:00 AM 57.3°F14.1°C 57.3°F14.1°C 100% 1.2 mph NE1.9 kmh NE 6.9 mph11.1 kmh 29.86 in1011.2 mb - 0.01 in0.3 mm 0.06 in1.5 mm
12:50 AM 57.3°F14.1°C 57.3°F14.1°C 100% 2.3 mph ENE3.7 kmh ENE 3.5 mph5.6 kmh 29.86 in1011.2 mb - 0.00 in0.0 mm 0.05 in1.3 mm
12:40 AM 57.3°F14.1°C 57.3°F14.1°C 100% 1.2 mph ENE1.9 kmh ENE 4.6 mph7.4 kmh 29.87 in1011.5 mb - 0.02 in0.5 mm 0.05 in1.3 mm
12:30 AM 57.2°F14.0°C 57.2°F14.0°C 100% 1.2 mph ENE1.9 kmh ENE 3.5 mph5.6 kmh 29.88 in1011.9 mb - 0.02 in0.5 mm 0.04 in1.0 mm
12:20 AM 57.2°F14.0°C 57.2°F14.0°C 100% Calm Calm 3.5 mph5.6 kmh 29.89 in1012.2 mb - 0.00 in0.0 mm 0.02 in0.5 mm
12:10 AM 57.1°F13.9°C 57.1°F13.9°C 100% 2.3 mph ENE3.7 kmh ENE 3.5 mph5.6 kmh 29.89 in1012.2 mb - 0.00 in0.0 mm 0.02 in0.5 mm
12:00 AM 57.1°F13.9°C 57.1°F13.9°C 100% 2.3 mph NE3.7 kmh NE 3.5 mph5.6 kmh 29.89 in1012.2 mb - 0.00 in0.0 mm 0.02 in0.5 mm